createdAt,value
2019-02-27T00:00:04.536Z,3.3
2019-02-27T00:01:03.042Z,3.3
2019-02-27T00:02:03.046Z,3.3
2019-02-27T00:03:03.114Z,3.3
2019-02-27T00:04:03.166Z,3.3
2019-02-27T00:05:03.194Z,3.3
2019-02-27T00:06:03.277Z,3.3
2019-02-27T00:07:03.289Z,3.3
2019-02-27T00:08:03.408Z,3.3
2019-02-27T00:09:03.455Z,3.3
2019-02-27T00:10:05.817Z,3.3
2019-02-27T00:11:05.992Z,3.3
2019-02-27T00:12:03.577Z,3.3
2019-02-27T00:13:03.586Z,3.3
2019-02-27T00:14:03.604Z,3.3
2019-02-27T00:15:04.894Z,3.3
2019-02-27T00:16:03.683Z,3.3
2019-02-27T00:17:03.670Z,3.3
2019-02-27T00:18:03.711Z,3.3
2019-02-27T00:19:03.761Z,3.3
2019-02-27T00:20:04.942Z,3.3
2019-02-27T00:21:04.303Z,3.3
2019-02-27T00:22:03.855Z,3.3
2019-02-27T00:23:03.886Z,3.3
2019-02-27T00:24:03.904Z,3.3
2019-02-27T00:25:04.130Z,3.3
2019-02-27T00:26:03.980Z,3.2
2019-02-27T00:27:04.010Z,3.2
2019-02-27T00:28:04.029Z,3.2
2019-02-27T00:29:04.021Z,3.2
2019-02-27T00:30:05.677Z,3.2
2019-02-27T00:31:04.124Z,3.1
2019-02-27T00:32:04.121Z,3.1
2019-02-27T00:33:04.211Z,3.1
2019-02-27T00:34:04.185Z,3.1
2019-02-27T00:35:06.685Z,3
2019-02-27T00:36:04.249Z,3
2019-02-27T00:37:04.277Z,3
2019-02-27T00:38:04.290Z,3
2019-02-27T00:39:04.359Z,3
2019-02-27T00:40:05.587Z,3
2019-02-27T00:41:04.391Z,3
2019-02-27T00:42:04.404Z,3
2019-02-27T00:43:04.447Z,3
2019-02-27T00:44:04.448Z,3
2019-02-27T00:45:06.758Z,3
2019-02-27T00:46:04.498Z,3
2019-02-27T00:47:04.511Z,3
2019-02-27T00:48:04.523Z,2.9
2019-02-27T00:49:04.525Z,2.9
2019-02-27T00:50:06.491Z,2.9
2019-02-27T00:51:04.554Z,2.9
2019-02-27T00:52:04.586Z,2.9
2019-02-27T00:53:04.599Z,2.9
2019-02-27T00:54:04.603Z,2.9
2019-02-27T00:55:05.267Z,2.9
2019-02-27T00:56:04.629Z,2.9
2019-02-27T00:57:04.660Z,2.9
2019-02-27T00:58:04.678Z,2.9
2019-02-27T00:59:04.674Z,2.9
2019-02-27T01:00:06.475Z,2.9
2019-02-27T01:01:04.687Z,2.9
2019-02-27T01:02:04.695Z,2.9
2019-02-27T01:03:04.813Z,2.9
2019-02-27T01:04:04.703Z,2.9
2019-02-27T01:05:06.151Z,2.9
2019-02-27T01:06:05.018Z,2.9
2019-02-27T01:07:04.717Z,2.9
2019-02-27T01:08:04.886Z,2.9
2019-02-27T01:09:06.346Z,2.9
2019-02-27T01:10:04.891Z,2.9
2019-02-27T01:11:04.895Z,2.9
2019-02-27T01:12:05.017Z,2.9
2019-02-27T01:13:05.030Z,2.9
2019-02-27T01:14:05.068Z,2.9
2019-02-27T01:15:05.150Z,2.9
2019-02-27T01:16:05.162Z,2.9
2019-02-27T01:17:05.265Z,2.9
2019-02-27T01:18:05.324Z,2.9
2019-02-27T01:19:05.417Z,2.9
2019-02-27T01:20:05.439Z,2.9
2019-02-27T01:21:05.502Z,2.9
2019-02-27T01:22:05.497Z,2.9
2019-02-27T01:23:05.558Z,2.9
2019-02-27T01:24:05.578Z,3
2019-02-27T01:25:05.651Z,3
2019-02-27T01:26:05.680Z,3
2019-02-27T01:27:05.722Z,3
2019-02-27T01:28:05.787Z,3
2019-02-27T01:29:05.816Z,3
2019-02-27T01:30:05.864Z,3
2019-02-27T01:31:05.944Z,3
2019-02-27T01:32:05.978Z,3
2019-02-27T01:33:05.978Z,3
2019-02-27T01:34:06.009Z,3
2019-02-27T01:35:06.068Z,3
2019-02-27T01:36:06.146Z,3
2019-02-27T01:37:06.196Z,3
2019-02-27T01:38:06.243Z,3
2019-02-27T01:39:06.291Z,3
2019-02-27T01:40:06.372Z,3
2019-02-27T01:41:06.377Z,3
2019-02-27T01:42:06.466Z,2.9
2019-02-27T01:43:06.565Z,2.9
2019-02-27T01:44:06.535Z,2.9
2019-02-27T01:45:06.622Z,2.9
2019-02-27T01:46:06.560Z,2.9
2019-02-27T01:47:06.599Z,2.9
2019-02-27T01:48:08.866Z,2.9
2019-02-27T01:49:06.676Z,2.9
2019-02-27T01:50:06.742Z,2.9
2019-02-27T01:51:06.720Z,2.9
2019-02-27T01:52:06.740Z,2.9
2019-02-27T01:53:07.307Z,2.9
2019-02-27T01:54:06.855Z,2.9
2019-02-27T01:55:06.907Z,2.9
2019-02-27T01:56:06.891Z,2.9
2019-02-27T01:57:06.949Z,2.9
2019-02-27T01:58:09.112Z,2.9
2019-02-27T01:59:07.023Z,3
2019-02-27T02:00:07.100Z,2.9
2019-02-27T02:01:07.118Z,2.9
2019-02-27T02:02:07.198Z,2.9
2019-02-27T02:03:07.234Z,2.9
2019-02-27T02:04:07.237Z,2.9
2019-02-27T02:05:07.300Z,2.9
2019-02-27T02:06:07.331Z,2.9
2019-02-27T02:07:07.434Z,2.9
2019-02-27T02:08:07.362Z,2.9
2019-02-27T02:09:07.404Z,2.9
2019-02-27T02:10:07.481Z,2.9
2019-02-27T02:11:07.476Z,2.9
2019-02-27T02:12:08.615Z,2.9
2019-02-27T02:13:07.526Z,2.9
2019-02-27T02:14:07.558Z,2.9
2019-02-27T02:15:07.568Z,2.9
2019-02-27T02:16:07.609Z,2.9
2019-02-27T02:17:08.042Z,2.9
2019-02-27T02:18:07.653Z,2.9
2019-02-27T02:19:07.659Z,2.9
2019-02-27T02:20:07.670Z,2.9
2019-02-27T02:21:07.785Z,2.9
2019-02-27T02:22:08.837Z,2.9
2019-02-27T02:23:07.759Z,2.9
2019-02-27T02:24:07.770Z,2.9
2019-02-27T02:25:07.808Z,2.9
2019-02-27T02:26:07.815Z,2.9
2019-02-27T02:27:08.733Z,2.9
2019-02-27T02:28:07.859Z,2.9
2019-02-27T02:29:07.871Z,2.9
2019-02-27T02:30:07.881Z,2.9
2019-02-27T02:31:07.902Z,2.9
2019-02-27T02:32:07.946Z,2.9
2019-02-27T02:33:07.937Z,2.9
2019-02-27T02:34:08.088Z,2.9
2019-02-27T02:35:07.996Z,2.9
2019-02-27T02:36:07.988Z,2.9
2019-02-27T02:37:08.024Z,2.9
2019-02-27T02:38:11.782Z,2.9
2019-02-27T02:39:08.020Z,2.9
2019-02-27T02:40:08.015Z,2.9
2019-02-27T02:41:09.251Z,2.9
2019-02-27T02:42:08.050Z,2.9
2019-02-27T02:43:08.051Z,2.9
2019-02-27T02:44:08.101Z,2.9
2019-02-27T02:45:08.079Z,2.9
2019-02-27T02:46:09.549Z,2.9
2019-02-27T02:47:08.072Z,2.9
2019-02-27T02:48:08.105Z,2.9
2019-02-27T02:49:08.572Z,2.9
2019-02-27T02:50:08.110Z,2.9
2019-02-27T02:51:08.185Z,2.9
2019-02-27T02:52:08.234Z,2.9
2019-02-27T02:53:08.301Z,2.9
2019-02-27T02:54:08.392Z,2.9
2019-02-27T02:55:11.857Z,2.9
2019-02-27T02:56:08.445Z,2.9
2019-02-27T02:57:08.556Z,2.9
2019-02-27T02:58:11.241Z,2.9
2019-02-27T02:59:08.654Z,2.9
2019-02-27T03:00:08.663Z,2.9
2019-02-27T03:02:08.787Z,2.9
2019-02-27T03:03:08.911Z,2.9
2019-02-27T03:04:12.438Z,2.9
2019-02-27T03:05:08.950Z,2.9
2019-02-27T03:06:08.975Z,3
2019-02-27T03:07:10.792Z,3
2019-02-27T03:08:09.084Z,2.9
2019-02-27T03:09:09.110Z,2.9
2019-02-27T03:10:09.187Z,2.9
2019-02-27T03:11:09.250Z,2.9
2019-02-27T03:12:09.261Z,2.9
2019-02-27T03:13:09.367Z,2.9
2019-02-27T03:14:09.351Z,2.8
2019-02-27T03:15:09.394Z,2.8
2019-02-27T03:16:09.449Z,2.8
2019-02-27T03:17:09.506Z,2.8
2019-02-27T03:18:09.513Z,2.8
2019-02-27T03:19:09.623Z,2.8
2019-02-27T03:20:09.617Z,2.8
2019-02-27T03:21:09.653Z,2.8
2019-02-27T03:22:09.729Z,2.8
2019-02-27T03:23:15.268Z,2.8
2019-02-27T03:24:09.793Z,2.8
2019-02-27T03:25:09.858Z,2.8
2019-02-27T03:26:09.913Z,2.8
2019-02-27T03:27:09.932Z,2.8
2019-02-27T03:28:09.952Z,2.7
2019-02-27T03:29:15.491Z,2.7
2019-02-27T03:30:10.166Z,2.7
2019-02-27T03:32:10.124Z,2.7
2019-02-27T03:33:10.663Z,2.7
2019-02-27T03:34:10.262Z,2.7
2019-02-27T03:35:10.231Z,2.6
2019-02-27T03:36:10.239Z,2.6
2019-02-27T03:37:13.067Z,2.6
2019-02-27T03:38:10.362Z,2.6
2019-02-27T03:39:10.361Z,2.6
2019-02-27T03:40:11.731Z,2.6
2019-02-27T03:41:10.428Z,2.6
2019-02-27T03:42:10.484Z,2.6
2019-02-27T03:43:11.452Z,2.6
2019-02-27T03:44:10.539Z,2.6
2019-02-27T03:45:10.566Z,2.6
2019-02-27T03:46:10.676Z,2.6
2019-02-27T03:47:15.390Z,2.6
2019-02-27T03:48:10.616Z,2.6
2019-02-27T03:49:10.669Z,2.6
2019-02-27T03:51:10.705Z,2.6
2019-02-27T03:52:10.737Z,2.6
2019-02-27T03:53:11.681Z,2.6
2019-02-27T03:54:10.818Z,2.6
2019-02-27T03:55:10.864Z,2.6
2019-02-27T03:56:10.889Z,2.6
2019-02-27T03:57:10.917Z,2.6
2019-02-27T03:58:10.907Z,2.6
2019-02-27T03:59:10.973Z,2.6
2019-02-27T04:00:11.008Z,2.6
2019-02-27T04:01:11.028Z,2.6
2019-02-27T04:02:11.025Z,2.6
2019-02-27T04:03:16.900Z,2.6
2019-02-27T04:04:11.105Z,2.6
2019-02-27T04:05:11.125Z,2.6
2019-02-27T04:06:11.152Z,2.6
2019-02-27T04:07:11.151Z,2.6
2019-02-27T04:08:11.197Z,2.6
2019-02-27T04:09:11.189Z,2.6
2019-02-27T04:10:11.182Z,2.6
2019-02-27T04:11:11.208Z,2.6
2019-02-27T04:12:15.992Z,2.6
2019-02-27T04:13:11.232Z,2.5
2019-02-27T04:14:11.266Z,2.6
2019-02-27T04:15:11.286Z,2.6
2019-02-27T04:16:11.274Z,2.5
2019-02-27T04:17:11.288Z,2.5
2019-02-27T04:18:11.322Z,2.5
2019-02-27T04:19:11.325Z,2.5
2019-02-27T04:21:11.369Z,2.5
2019-02-27T04:22:11.371Z,2.5
2019-02-27T04:23:12.690Z,2.5
2019-02-27T04:24:11.376Z,2.5
2019-02-27T04:25:11.396Z,2.5
2019-02-27T04:26:11.423Z,2.5
2019-02-27T04:27:11.407Z,2.5
2019-02-27T04:28:11.421Z,2.5
2019-02-27T04:29:11.435Z,2.4
2019-02-27T04:30:14.658Z,2.4
2019-02-27T04:31:11.465Z,2.4
2019-02-27T04:32:12.386Z,2.5
2019-02-27T04:33:11.501Z,2.5
2019-02-27T04:34:11.552Z,2.4
2019-02-27T04:35:11.559Z,2.4
2019-02-27T04:36:12.654Z,2.4
2019-02-27T04:37:11.621Z,2.5
2019-02-27T04:38:11.661Z,2.5
2019-02-27T04:39:11.698Z,2.5
2019-02-27T04:40:11.805Z,2.5
2019-02-27T04:41:11.834Z,2.4
2019-02-27T04:42:11.926Z,2.4
2019-02-27T04:43:11.996Z,2.4
2019-02-27T04:44:12.033Z,2.4
2019-02-27T04:45:12.870Z,2.4
2019-02-27T04:46:12.149Z,2.4
2019-02-27T04:47:12.229Z,2.4
2019-02-27T04:48:12.294Z,2.4
2019-02-27T04:49:12.342Z,2.4
2019-02-27T04:50:12.367Z,2.4
2019-02-27T04:51:16.843Z,2.4
2019-02-27T04:52:12.394Z,2.4
2019-02-27T04:53:12.434Z,2.4
2019-02-27T04:54:28.173Z,2.4
2019-02-27T04:55:13.036Z,2.4
2019-02-27T04:56:12.528Z,2.4
2019-02-27T04:57:12.578Z,2.4
2019-02-27T04:58:12.559Z,2.4
2019-02-27T04:59:12.576Z,2.4
2019-02-27T05:00:12.623Z,2.4
2019-02-27T05:01:12.639Z,2.4
2019-02-27T05:02:14.537Z,2.4
2019-02-27T05:03:12.756Z,2.4
2019-02-27T05:04:12.787Z,2.4
2019-02-27T05:05:12.863Z,2.4
2019-02-27T05:06:14.381Z,2.4
2019-02-27T05:07:12.876Z,2.4
2019-02-27T05:08:12.947Z,2.4
2019-02-27T05:09:12.968Z,2.4
2019-02-27T05:10:13.009Z,2.4
2019-02-27T05:11:14.148Z,2.4
2019-02-27T05:12:13.063Z,2.4
2019-02-27T05:13:13.149Z,2.4
2019-02-27T05:14:13.168Z,2.4
2019-02-27T05:15:13.203Z,2.4
2019-02-27T05:16:14.099Z,2.4
2019-02-27T05:17:13.312Z,2.4
2019-02-27T05:18:13.374Z,2.4
2019-02-27T05:19:15.190Z,2.4
2019-02-27T05:20:13.438Z,2.4
2019-02-27T05:21:13.526Z,2.4
2019-02-27T05:22:13.549Z,2.4
2019-02-27T05:23:13.580Z,2.4
2019-02-27T05:24:13.606Z,2.4
2019-02-27T05:25:14.406Z,2.4
2019-02-27T05:26:13.743Z,2.4
2019-02-27T05:27:13.715Z,2.4
2019-02-27T05:28:13.768Z,2.4
2019-02-27T05:29:15.697Z,2.4
2019-02-27T05:30:13.835Z,2.4
2019-02-27T05:31:18.034Z,2.4
2019-02-27T05:32:13.944Z,2.4
2019-02-27T05:33:13.925Z,2.4
2019-02-27T05:34:13.937Z,2.4
2019-02-27T05:35:13.989Z,2.4
2019-02-27T05:36:13.991Z,2.4
2019-02-27T05:37:14.020Z,2.4
2019-02-27T05:38:14.025Z,2.3
2019-02-27T05:39:14.885Z,2.3
2019-02-27T05:40:14.055Z,2.3
2019-02-27T05:41:14.081Z,2.3
2019-02-27T05:42:14.098Z,2.2
2019-02-27T05:43:14.138Z,2.2
2019-02-27T05:44:14.140Z,2.2
2019-02-27T05:45:14.186Z,2.2
2019-02-27T05:46:15.100Z,2.2
2019-02-27T05:47:14.230Z,2.3
2019-02-27T05:48:19.601Z,2.3
2019-02-27T05:49:14.249Z,2.3
2019-02-27T05:50:14.302Z,2.3
2019-02-27T05:51:14.331Z,2.3
2019-02-27T05:52:15.054Z,2.3
2019-02-27T05:53:14.391Z,2.3
2019-02-27T05:54:14.390Z,2.4
2019-02-27T05:55:14.414Z,2.4
2019-02-27T05:56:16.226Z,2.3
2019-02-27T05:57:14.414Z,2.4
2019-02-27T05:58:14.435Z,2.4
2019-02-27T05:59:14.461Z,2.4
2019-02-27T06:00:14.468Z,2.4
2019-02-27T06:01:14.534Z,2.4
2019-02-27T06:02:14.486Z,2.3
2019-02-27T06:03:15.849Z,2.4
2019-02-27T06:04:14.494Z,2.4
2019-02-27T06:05:14.533Z,2.3
2019-02-27T06:06:14.546Z,2.4
2019-02-27T06:07:18.601Z,2.3
2019-02-27T06:08:14.571Z,2.3
2019-02-27T06:09:14.579Z,2.3
2019-02-27T06:10:15.813Z,2.3
2019-02-27T06:11:14.564Z,2.3
2019-02-27T06:12:14.609Z,2.3
2019-02-27T06:13:14.734Z,2.4
2019-02-27T06:14:14.593Z,2.3
2019-02-27T06:15:14.680Z,2.4
2019-02-27T06:16:14.576Z,2.4
2019-02-27T06:17:14.607Z,2.3
2019-02-27T06:18:14.633Z,2.4
2019-02-27T06:19:14.619Z,2.4
2019-02-27T06:20:14.671Z,2.4
2019-02-27T06:21:16.350Z,2.4
2019-02-27T06:22:14.803Z,2.4
2019-02-27T06:23:14.893Z,2.4
2019-02-27T06:24:15.020Z,2.4
2019-02-27T06:25:21.461Z,2.4
2019-02-27T06:26:15.082Z,2.4
2019-02-27T06:27:15.057Z,2.4
2019-02-27T06:28:18.417Z,2.4
2019-02-27T06:29:15.167Z,2.4
2019-02-27T06:30:15.240Z,2.4
2019-02-27T06:31:15.283Z,2.4
2019-02-27T06:32:15.373Z,2.4
2019-02-27T06:33:15.526Z,2.4
2019-02-27T06:34:15.460Z,2.4
2019-02-27T06:35:15.509Z,2.4
2019-02-27T06:36:15.552Z,2.4
2019-02-27T06:37:16.092Z,2.4
2019-02-27T06:38:15.632Z,2.4
2019-02-27T06:39:15.696Z,2.4
2019-02-27T06:40:17.916Z,2.4
2019-02-27T06:41:16.283Z,2.5
2019-02-27T06:42:15.837Z,2.5
2019-02-27T06:43:15.835Z,2.5
2019-02-27T06:44:15.883Z,2.5
2019-02-27T06:45:15.910Z,2.5
2019-02-27T06:46:17.286Z,2.5
2019-02-27T06:47:16.049Z,2.5
2019-02-27T06:48:16.103Z,2.5
2019-02-27T06:49:18.180Z,2.6
2019-02-27T06:50:16.198Z,2.6
2019-02-27T06:51:16.184Z,2.6
2019-02-27T06:52:16.407Z,2.6
2019-02-27T06:53:16.570Z,2.7
2019-02-27T06:54:18.324Z,2.7
2019-02-27T06:55:16.403Z,2.7
2019-02-27T06:56:16.452Z,2.8
2019-02-27T06:57:16.459Z,2.8
2019-02-27T06:58:16.456Z,2.8
2019-02-27T06:59:18.042Z,2.8
2019-02-27T07:00:16.631Z,2.9
2019-02-27T07:01:16.621Z,2.9
2019-02-27T07:02:19.063Z,2.9
2019-02-27T07:03:16.707Z,3
2019-02-27T07:04:16.774Z,3
2019-02-27T07:05:16.756Z,3.1
2019-02-27T07:06:21.234Z,3.1
2019-02-27T07:07:16.922Z,3.2
2019-02-27T07:08:16.860Z,3.2
2019-02-27T07:09:16.894Z,3.3
2019-02-27T07:10:19.830Z,3.3
2019-02-27T07:11:16.955Z,3.4
2019-02-27T07:12:21.565Z,3.5
2019-02-27T07:13:17.001Z,3.6
2019-02-27T07:14:17.042Z,3.6
2019-02-27T07:15:17.073Z,3.7
2019-02-27T07:16:17.115Z,3.8
2019-02-27T07:17:17.194Z,3.9
2019-02-27T07:18:17.191Z,3.9
2019-02-27T07:19:17.247Z,4
2019-02-27T07:20:17.269Z,4.1
2019-02-27T07:21:17.311Z,4.2
2019-02-27T07:22:17.335Z,4.3
2019-02-27T07:23:22.592Z,4.4
2019-02-27T07:24:17.437Z,4.5
2019-02-27T07:25:17.430Z,4.6
2019-02-27T07:26:17.433Z,4.7
2019-02-27T07:27:17.520Z,4.7
2019-02-27T07:28:17.526Z,4.9
2019-02-27T07:29:21.513Z,5
2019-02-27T07:30:17.605Z,5.1
2019-02-27T07:31:18.361Z,5.2
2019-02-27T07:32:17.642Z,5.3
2019-02-27T07:33:17.673Z,5.4
2019-02-27T07:34:17.675Z,5.5
2019-02-27T07:35:17.712Z,5.7
2019-02-27T07:36:17.712Z,5.8
2019-02-27T07:37:17.727Z,5.9
2019-02-27T07:38:21.330Z,6
2019-02-27T07:39:17.776Z,6.2
2019-02-27T07:40:17.783Z,6.3
2019-02-27T07:41:20.677Z,6.4
2019-02-27T07:42:17.842Z,6.5
2019-02-27T07:43:17.860Z,6.6
2019-02-27T07:44:17.859Z,6.8
2019-02-27T07:45:17.951Z,6.9
2019-02-27T07:46:22.124Z,7
2019-02-27T07:47:17.871Z,7.1
2019-02-27T07:48:17.915Z,7.2
2019-02-27T07:49:17.910Z,7.4
2019-02-27T07:50:17.924Z,7.5
2019-02-27T07:51:17.932Z,7.6
2019-02-27T07:52:17.918Z,7.7
2019-02-27T07:53:18.315Z,7.7
2019-02-27T07:54:17.938Z,7.8
2019-02-27T07:55:21.768Z,7.9
2019-02-27T07:56:17.968Z,8
2019-02-27T07:57:17.956Z,8.1
2019-02-27T07:58:17.939Z,8.2
2019-02-27T07:59:18.600Z,8.3
2019-02-27T08:00:18.106Z,8.4
2019-02-27T08:01:18.105Z,8.5
2019-02-27T08:02:18.123Z,8.5
2019-02-27T08:03:18.268Z,8.6
2019-02-27T08:04:19.226Z,8.7
2019-02-27T08:05:20.622Z,8.8
2019-02-27T08:06:18.440Z,8.9
2019-02-27T08:07:18.420Z,9
2019-02-27T08:08:23.192Z,9.1
2019-02-27T08:09:18.536Z,9.2
2019-02-27T08:10:18.563Z,9.3
2019-02-27T08:11:18.618Z,9.4
2019-02-27T08:12:19.878Z,9.5
2019-02-27T08:13:18.709Z,9.6
2019-02-27T08:14:18.756Z,9.7
2019-02-27T08:15:18.773Z,9.8
2019-02-27T08:16:18.817Z,9.9
2019-02-27T08:17:18.928Z,10.1
2019-02-27T08:18:27.163Z,10.2
2019-02-27T08:19:18.973Z,10.3
2019-02-27T08:20:20.946Z,10.5
2019-02-27T08:21:19.083Z,10.6
2019-02-27T08:22:19.138Z,10.7
2019-02-27T08:23:19.203Z,10.8
2019-02-27T08:24:19.245Z,10.9
2019-02-27T08:25:19.300Z,11
2019-02-27T08:26:19.347Z,11.2
2019-02-27T08:27:19.360Z,11.3
2019-02-27T08:28:19.363Z,11.4
2019-02-27T08:29:19.414Z,11.5
2019-02-27T08:30:19.445Z,11.6
2019-02-27T08:31:19.508Z,11.7
2019-02-27T08:32:19.549Z,11.8
2019-02-27T08:33:19.643Z,11.9
2019-02-27T08:34:19.644Z,12
2019-02-27T08:35:19.642Z,12.1
2019-02-27T08:36:19.712Z,12.2
2019-02-27T08:37:20.317Z,12.3
2019-02-27T08:38:19.834Z,12.4
2019-02-27T08:39:19.866Z,12.5
2019-02-27T08:40:23.996Z,12.6
2019-02-27T08:41:19.949Z,12.7
2019-02-27T08:42:20.098Z,12.7
2019-02-27T08:43:20.055Z,12.8
2019-02-27T08:44:20.159Z,12.9
2019-02-27T08:45:20.645Z,13
2019-02-27T08:46:20.169Z,13.1
2019-02-27T08:47:20.211Z,13.2
2019-02-27T08:48:20.270Z,13.3
2019-02-27T08:49:23.915Z,13.4
2019-02-27T08:50:20.345Z,13.5
2019-02-27T08:51:20.359Z,13.5
2019-02-27T08:52:20.396Z,13.6
2019-02-27T08:53:25.803Z,13.7
2019-02-27T08:54:20.452Z,13.8
2019-02-27T08:55:22.418Z,13.9
2019-02-27T08:56:20.520Z,13.9
2019-02-27T08:57:20.576Z,14
2019-02-27T08:58:20.602Z,14.1
2019-02-27T08:59:20.641Z,14.2
2019-02-27T09:00:22.990Z,14.2
2019-02-27T09:01:21.657Z,14.3
2019-02-27T09:02:20.715Z,14.3
2019-02-27T09:03:20.873Z,14.4
2019-02-27T09:04:20.732Z,14.5
2019-02-27T09:05:20.925Z,14.5
2019-02-27T09:06:20.796Z,14.6
2019-02-27T09:07:20.798Z,14.6
2019-02-27T09:08:20.849Z,14.7
2019-02-27T09:09:20.851Z,14.7
2019-02-27T09:10:23.105Z,14.8
2019-02-27T09:11:20.914Z,14.9
2019-02-27T09:12:20.927Z,15
2019-02-27T09:13:20.994Z,15.1
2019-02-27T09:14:21.003Z,15.2
2019-02-27T09:15:21.070Z,15.3
2019-02-27T09:16:22.978Z,15.3
2019-02-27T09:17:21.035Z,15.4
2019-02-27T09:18:22.882Z,15.5
2019-02-27T09:19:21.107Z,15.5
2019-02-27T09:20:21.105Z,15.6
2019-02-27T09:21:21.117Z,15.6
2019-02-27T09:22:21.118Z,15.7
2019-02-27T09:23:21.143Z,15.8
2019-02-27T09:24:21.166Z,15.9
2019-02-27T09:25:24.471Z,16
2019-02-27T09:26:21.193Z,16
2019-02-27T09:27:21.172Z,16.1
2019-02-27T09:28:21.197Z,16.1
2019-02-27T09:29:21.206Z,16.1
2019-02-27T09:30:21.206Z,16.1
2019-02-27T09:31:21.202Z,16.2
2019-02-27T09:32:21.283Z,16.2
2019-02-27T09:33:21.248Z,16.2
2019-02-27T09:34:21.298Z,16.3
2019-02-27T09:35:21.243Z,16.3
2019-02-27T09:36:23.678Z,16.4
2019-02-27T09:37:21.274Z,16.4
2019-02-27T09:38:24.022Z,16.4
2019-02-27T09:39:22.140Z,16.3
2019-02-27T09:40:21.447Z,16.3
2019-02-27T09:41:21.503Z,16.3
2019-02-27T09:42:21.595Z,16.3
2019-02-27T09:43:24.049Z,16.3
2019-02-27T09:44:21.612Z,16.4
2019-02-27T09:45:21.715Z,16.5
2019-02-27T09:46:21.876Z,16.5
2019-02-27T09:47:23.120Z,16.6
2019-02-27T09:48:21.867Z,16.5
2019-02-27T09:49:21.871Z,16.6
2019-02-27T09:50:22.007Z,16.6
2019-02-27T09:51:22.157Z,16.6
2019-02-27T09:52:23.699Z,16.7
2019-02-27T09:53:22.087Z,16.7
2019-02-27T09:54:22.114Z,16.7
2019-02-27T09:55:22.179Z,16.7
2019-02-27T09:56:22.233Z,16.7
2019-02-27T09:57:22.306Z,16.7
2019-02-27T09:58:22.726Z,16.7
2019-02-27T09:59:22.457Z,16.7
2019-02-27T10:00:25.796Z,16.7
2019-02-27T10:01:22.535Z,16.7
2019-02-27T10:02:22.541Z,16.7
2019-02-27T10:03:22.622Z,16.8
2019-02-27T10:04:22.649Z,16.8
2019-02-27T10:05:22.665Z,16.9
2019-02-27T10:06:22.788Z,17
2019-02-27T10:07:22.755Z,17.1
2019-02-27T10:08:25.181Z,17.1
2019-02-27T10:09:22.859Z,17.2
2019-02-27T10:10:22.901Z,17.2
2019-02-27T10:11:23.004Z,17.3
2019-02-27T10:12:26.834Z,17.3
2019-02-27T10:13:23.092Z,17.3
2019-02-27T10:14:23.174Z,17.3
2019-02-27T10:15:25.118Z,17.3
2019-02-27T10:16:23.270Z,17.4
2019-02-27T10:17:23.313Z,17.4
2019-02-27T10:18:23.324Z,17.4
2019-02-27T10:19:23.355Z,17.4
2019-02-27T10:20:23.431Z,17.4
2019-02-27T10:21:23.479Z,17.5
2019-02-27T10:22:24.620Z,17.5
2019-02-27T10:23:23.462Z,17.5
2019-02-27T10:24:23.476Z,17.5
2019-02-27T10:25:23.585Z,17.5
2019-02-27T10:26:23.596Z,17.5
2019-02-27T10:27:25.451Z,17.5
2019-02-27T10:28:23.641Z,17.5
2019-02-27T10:29:23.700Z,17.5
2019-02-27T10:30:23.741Z,17.5
2019-02-27T10:31:25.875Z,17.6
2019-02-27T10:32:23.817Z,17.6
2019-02-27T10:33:25.728Z,17.7
2019-02-27T10:34:23.921Z,17.7
2019-02-27T10:35:23.919Z,17.7
2019-02-27T10:36:23.996Z,17.7
2019-02-27T10:37:24.157Z,17.7
2019-02-27T10:38:26.075Z,17.7
2019-02-27T10:39:24.071Z,17.7
2019-02-27T10:40:24.076Z,17.7
2019-02-27T10:41:24.100Z,17.7
2019-02-27T10:42:24.148Z,17.8
2019-02-27T10:43:24.176Z,17.8
2019-02-27T10:44:24.231Z,17.8
2019-02-27T10:45:24.210Z,17.8
2019-02-27T10:46:24.335Z,17.8
2019-02-27T10:47:24.265Z,17.8
2019-02-27T10:48:24.320Z,17.8
2019-02-27T10:49:24.304Z,17.8
2019-02-27T10:50:24.373Z,17.8
2019-02-27T10:51:24.346Z,17.8
2019-02-27T10:52:25.035Z,17.9
2019-02-27T10:53:26.781Z,17.8
2019-02-27T10:54:24.418Z,17.8
2019-02-27T10:55:24.412Z,17.8
2019-02-27T10:56:24.871Z,17.8
2019-02-27T10:57:24.468Z,17.8
2019-02-27T10:58:24.705Z,17.8
2019-02-27T10:59:24.518Z,17.8
2019-02-27T11:00:25.063Z,17.8
2019-02-27T11:01:24.553Z,17.9
2019-02-27T11:02:24.569Z,17.9
2019-02-27T11:03:27.004Z,18
2019-02-27T11:04:24.629Z,18
2019-02-27T11:05:24.621Z,18
2019-02-27T11:06:33.401Z,18
2019-02-27T11:07:24.636Z,18
2019-02-27T11:08:28.568Z,18
2019-02-27T11:09:24.681Z,18
2019-02-27T11:10:24.736Z,18
2019-02-27T11:11:24.680Z,18
2019-02-27T11:12:26.806Z,18
2019-02-27T11:13:24.721Z,18.1
2019-02-27T11:14:24.727Z,18
2019-02-27T11:15:24.737Z,18
2019-02-27T11:16:24.721Z,18
2019-02-27T11:17:24.715Z,18
2019-02-27T11:18:24.755Z,18
2019-02-27T11:19:24.750Z,18
2019-02-27T11:20:24.900Z,18.1
2019-02-27T11:21:24.865Z,18.1
2019-02-27T11:22:24.902Z,18
2019-02-27T11:23:24.964Z,18
2019-02-27T11:24:25.039Z,18
2019-02-27T11:25:25.105Z,18
2019-02-27T11:26:25.202Z,18
2019-02-27T11:27:25.230Z,18
2019-02-27T11:28:25.244Z,18
2019-02-27T11:29:25.280Z,18
2019-02-27T11:30:25.338Z,18
2019-02-27T11:31:25.403Z,18
2019-02-27T11:32:25.454Z,17.9
2019-02-27T11:33:26.478Z,17.9
2019-02-27T11:34:25.544Z,17.8
2019-02-27T11:35:26.012Z,17.8
2019-02-27T11:36:25.580Z,17.8
2019-02-27T11:37:25.673Z,17.8
2019-02-27T11:38:25.788Z,17.8
2019-02-27T11:39:25.793Z,17.8
2019-02-27T11:40:25.841Z,17.9
2019-02-27T11:41:25.877Z,17.9
2019-02-27T11:42:25.898Z,17.9
2019-02-27T11:43:25.915Z,17.9
2019-02-27T11:44:26.165Z,17.9
2019-02-27T11:45:26.310Z,18
2019-02-27T11:46:26.038Z,17.9
2019-02-27T11:47:26.057Z,17.9
2019-02-27T11:48:26.112Z,17.9
2019-02-27T11:49:26.126Z,17.9
2019-02-27T11:50:26.164Z,17.9
2019-02-27T11:51:27.852Z,17.9
2019-02-27T11:52:28.589Z,17.9
2019-02-27T11:53:26.323Z,18
2019-02-27T11:54:26.339Z,18
2019-02-27T11:55:26.407Z,18
2019-02-27T11:56:26.461Z,18
2019-02-27T11:57:27.267Z,18.1
2019-02-27T11:58:26.543Z,18.1
2019-02-27T11:59:26.530Z,18.1
2019-02-27T12:00:26.663Z,18.1
2019-02-27T12:01:26.624Z,18.1
2019-02-27T12:02:29.127Z,18.1
2019-02-27T12:03:26.716Z,18.2
2019-02-27T12:04:26.734Z,18.2
2019-02-27T12:05:30.115Z,18.2
2019-02-27T12:06:26.822Z,18.3
2019-02-27T12:07:26.869Z,18.3
2019-02-27T12:08:26.931Z,18.3
2019-02-27T12:09:26.954Z,18.3
2019-02-27T12:10:27.013Z,18.4
2019-02-27T12:11:27.039Z,18.4
2019-02-27T12:12:27.067Z,18.4
2019-02-27T12:13:27.134Z,18.4
2019-02-27T12:14:27.180Z,18.4
2019-02-27T12:15:27.397Z,18.4
2019-02-27T12:16:27.200Z,18.5
2019-02-27T12:17:27.239Z,18.5
2019-02-27T12:18:27.280Z,18.5
2019-02-27T12:19:27.280Z,18.5
2019-02-27T12:20:27.336Z,18.6
2019-02-27T12:21:27.399Z,18.6
2019-02-27T12:22:27.382Z,18.6
2019-02-27T12:23:27.418Z,18.7
2019-02-27T12:24:27.458Z,18.7
2019-02-27T12:25:29.917Z,18.7
2019-02-27T12:26:27.507Z,18.8
2019-02-27T12:27:47.698Z,18.7
2019-02-27T12:28:27.553Z,18.8
2019-02-27T12:29:27.578Z,18.8
2019-02-27T12:30:27.588Z,18.8
2019-02-27T12:31:27.645Z,18.9
2019-02-27T12:32:27.628Z,18.9
2019-02-27T12:33:29.351Z,19
2019-02-27T12:34:27.686Z,19
2019-02-27T12:35:27.701Z,19
2019-02-27T12:36:27.877Z,19
2019-02-27T12:37:28.556Z,19
2019-02-27T12:38:27.740Z,19
2019-02-27T12:39:27.751Z,19
2019-02-27T12:40:27.825Z,19
2019-02-27T12:41:29.927Z,19
2019-02-27T12:42:35.709Z,19
2019-02-27T12:43:27.848Z,19
2019-02-27T12:44:27.836Z,18.9
2019-02-27T12:45:30.375Z,19
2019-02-27T12:46:27.853Z,19
2019-02-27T12:47:27.875Z,19
2019-02-27T12:48:27.899Z,19
2019-02-27T12:49:27.885Z,19
2019-02-27T12:50:30.960Z,19
2019-02-27T12:51:27.903Z,19
2019-02-27T12:52:27.893Z,19
2019-02-27T12:53:27.916Z,19
2019-02-27T12:54:27.967Z,19
2019-02-27T12:55:27.960Z,19
2019-02-27T12:56:27.917Z,19
2019-02-27T12:57:27.968Z,19
2019-02-27T12:58:27.959Z,19
2019-02-27T12:59:27.971Z,19
2019-02-27T13:00:27.945Z,19
2019-02-27T13:01:27.988Z,19
2019-02-27T13:02:35.393Z,19
2019-02-27T13:03:27.967Z,19
2019-02-27T13:04:27.974Z,19
2019-02-27T13:05:28.082Z,19.1
2019-02-27T13:06:28.612Z,19.1
2019-02-27T13:07:28.191Z,19
2019-02-27T13:08:28.381Z,19
2019-02-27T13:09:28.325Z,19
2019-02-27T13:10:32.789Z,19
2019-02-27T13:11:28.446Z,19
2019-02-27T13:12:28.530Z,19
2019-02-27T13:13:28.558Z,19
2019-02-27T13:14:32.889Z,19
2019-02-27T13:15:28.639Z,19
2019-02-27T13:16:28.711Z,19
2019-02-27T13:17:28.869Z,18.9
2019-02-27T13:18:31.960Z,18.9
2019-02-27T13:19:28.886Z,18.9
2019-02-27T13:20:28.924Z,18.9
2019-02-27T13:21:29.017Z,18.9
2019-02-27T13:22:30.040Z,18.9
2019-02-27T13:23:29.145Z,18.9
2019-02-27T13:24:29.174Z,19
2019-02-27T13:25:30.309Z,19
2019-02-27T13:26:31.466Z,19
2019-02-27T13:27:29.309Z,19
2019-02-27T13:28:29.366Z,19
2019-02-27T13:29:29.404Z,19
2019-02-27T13:30:29.478Z,19
2019-02-27T13:31:29.533Z,19
2019-02-27T13:32:29.559Z,18.9
2019-02-27T13:33:29.645Z,18.9
2019-02-27T13:34:29.646Z,18.9
2019-02-27T13:35:29.649Z,18.9
2019-02-27T13:36:31.488Z,19
2019-02-27T13:37:29.785Z,19
2019-02-27T13:38:29.758Z,19
2019-02-27T13:39:29.794Z,19
2019-02-27T13:40:34.892Z,19
2019-02-27T13:41:29.878Z,19
2019-02-27T13:42:29.852Z,19
2019-02-27T13:43:29.889Z,18.9
2019-02-27T13:44:34.230Z,18.9
2019-02-27T13:45:29.978Z,18.9
2019-02-27T13:46:30.058Z,18.9
2019-02-27T13:47:31.047Z,18.9
2019-02-27T13:48:30.086Z,18.9